sensor_id;sensor_type;location;lat;lon;timestamp;P1;durP1;ratioP1;P2;durP2;ratioP2
20734;SDS011;10528;52.124;5.196;2022-12-05T00:04:06;45.75;;;25.13;;
20734;SDS011;10528;52.124;5.196;2022-12-05T00:06:38;43.97;;;24.17;;
20734;SDS011;10528;52.124;5.196;2022-12-05T00:09:07;39.42;;;23.17;;
20734;SDS011;10528;52.124;5.196;2022-12-05T00:11:37;40.83;;;24.92;;
20734;SDS011;10528;52.124;5.196;2022-12-05T00:14:08;43.83;;;24.17;;
20734;SDS011;10528;52.124;5.196;2022-12-05T00:16:37;40.15;;;22.42;;
20734;SDS011;10528;52.124;5.196;2022-12-05T00:19:07;41.70;;;24.55;;
20734;SDS011;10528;52.124;5.196;2022-12-05T00:21:39;43.97;;;25.65;;
20734;SDS011;10528;52.124;5.196;2022-12-05T00:24:07;40.70;;;24.45;;
20734;SDS011;10528;52.124;5.196;2022-12-05T00:26:38;45.78;;;25.23;;
20734;SDS011;10528;52.124;5.196;2022-12-05T00:29:05;43.67;;;24.10;;
20734;SDS011;10528;52.124;5.196;2022-12-05T00:31:32;44.03;;;25.10;;
20734;SDS011;10528;52.124;5.196;2022-12-05T00:33:59;43.17;;;25.35;;
20734;SDS011;10528;52.124;5.196;2022-12-05T00:36:28;45.30;;;24.35;;
20734;SDS011;10528;52.124;5.196;2022-12-05T00:38:59;45.75;;;25.33;;
20734;SDS011;10528;52.124;5.196;2022-12-05T00:41:32;42.97;;;24.75;;
20734;SDS011;10528;52.124;5.196;2022-12-05T00:43:59;46.72;;;25.30;;
20734;SDS011;10528;52.124;5.196;2022-12-05T00:46:29;42.22;;;24.02;;
20734;SDS011;10528;52.124;5.196;2022-12-05T00:48:57;43.60;;;25.52;;
20734;SDS011;10528;52.124;5.196;2022-12-05T00:51:28;46.58;;;24.38;;
20734;SDS011;10528;52.124;5.196;2022-12-05T00:54:02;43.42;;;23.58;;
20734;SDS011;10528;52.124;5.196;2022-12-05T00:56:33;42.45;;;24.55;;
20734;SDS011;10528;52.124;5.196;2022-12-05T00:59:01;43.92;;;24.45;;
20734;SDS011;10528;52.124;5.196;2022-12-05T01:01:30;45.17;;;24.95;;
20734;SDS011;10528;52.124;5.196;2022-12-05T01:04:10;39.28;;;24.13;;
20734;SDS011;10528;52.124;5.196;2022-12-05T01:06:40;42.35;;;23.55;;
20734;SDS011;10528;52.124;5.196;2022-12-05T01:09:10;43.45;;;23.85;;
20734;SDS011;10528;52.124;5.196;2022-12-05T01:11:43;40.88;;;22.75;;
20734;SDS011;10528;52.124;5.196;2022-12-05T01:14:10;44.70;;;24.58;;
20734;SDS011;10528;52.124;5.196;2022-12-05T01:16:40;42.63;;;23.20;;
20734;SDS011;10528;52.124;5.196;2022-12-05T01:19:16;37.08;;;22.50;;
20734;SDS011;10528;52.124;5.196;2022-12-05T01:21:47;41.00;;;25.15;;
20734;SDS011;10528;52.124;5.196;2022-12-05T01:24:14;42.60;;;24.42;;
20734;SDS011;10528;52.124;5.196;2022-12-05T01:26:43;44.38;;;24.63;;
20734;SDS011;10528;52.124;5.196;2022-12-05T01:29:11;43.95;;;26.08;;
20734;SDS011;10528;52.124;5.196;2022-12-05T01:31:41;41.75;;;24.05;;
20734;SDS011;10528;52.124;5.196;2022-12-05T01:34:09;39.80;;;24.20;;
20734;SDS011;10528;52.124;5.196;2022-12-05T01:36:39;45.65;;;24.55;;
20734;SDS011;10528;52.124;5.196;2022-12-05T01:39:08;46.72;;;25.35;;
20734;SDS011;10528;52.124;5.196;2022-12-05T01:41:37;39.72;;;22.48;;
20734;SDS011;10528;52.124;5.196;2022-12-05T01:46:45;40.67;;;23.92;;
20734;SDS011;10528;52.124;5.196;2022-12-05T01:49:16;43.95;;;25.30;;
20734;SDS011;10528;52.124;5.196;2022-12-05T01:51:49;46.72;;;25.25;;
20734;SDS011;10528;52.124;5.196;2022-12-05T01:54:20;45.88;;;24.45;;
20734;SDS011;10528;52.124;5.196;2022-12-05T01:56:49;43.25;;;25.10;;
20734;SDS011;10528;52.124;5.196;2022-12-05T01:59:23;42.83;;;24.13;;
20734;SDS011;10528;52.124;5.196;2022-12-05T02:01:53;46.80;;;25.45;;
20734;SDS011;10528;52.124;5.196;2022-12-05T02:04:20;39.80;;;23.63;;
20734;SDS011;10528;52.124;5.196;2022-12-05T02:06:47;44.50;;;24.80;;
20734;SDS011;10528;52.124;5.196;2022-12-05T02:09:14;46.38;;;24.85;;
20734;SDS011;10528;52.124;5.196;2022-12-05T02:11:44;43.80;;;24.73;;
20734;SDS011;10528;52.124;5.196;2022-12-05T02:14:27;41.83;;;25.10;;
20734;SDS011;10528;52.124;5.196;2022-12-05T02:28:25;39.95;;;23.52;;
20734;SDS011;10528;52.124;5.196;2022-12-05T02:34:09;41.20;;;24.40;;
20734;SDS011;10528;52.124;5.196;2022-12-05T02:42:27;44.05;;;26.50;;
20734;SDS011;10528;52.124;5.196;2022-12-05T02:45:08;43.92;;;24.77;;
20734;SDS011;10528;52.124;5.196;2022-12-05T02:47:41;45.72;;;25.88;;
20734;SDS011;10528;52.124;5.196;2022-12-05T02:50:14;41.63;;;25.10;;
20734;SDS011;10528;52.124;5.196;2022-12-05T02:52:47;41.08;;;24.40;;
20734;SDS011;10528;52.124;5.196;2022-12-05T02:55:17;45.10;;;24.98;;
20734;SDS011;10528;52.124;5.196;2022-12-05T02:57:51;42.75;;;23.90;;
20734;SDS011;10528;52.124;5.196;2022-12-05T03:00:25;42.97;;;24.35;;
20734;SDS011;10528;52.124;5.196;2022-12-05T03:02:52;43.92;;;24.27;;
20734;SDS011;10528;52.124;5.196;2022-12-05T03:08:11;43.85;;;24.92;;
20734;SDS011;10528;52.124;5.196;2022-12-05T03:10:44;42.05;;;23.60;;
20734;SDS011;10528;52.124;5.196;2022-12-05T03:13:17;40.28;;;21.98;;
20734;SDS011;10528;52.124;5.196;2022-12-05T03:15:54;44.53;;;23.90;;
20734;SDS011;10528;52.124;5.196;2022-12-05T03:18:28;41.90;;;24.50;;
20734;SDS011;10528;52.124;5.196;2022-12-05T03:21:04;44.22;;;24.45;;
20734;SDS011;10528;52.124;5.196;2022-12-05T03:23:46;43.30;;;24.10;;
20734;SDS011;10528;52.124;5.196;2022-12-05T03:29:34;37.50;;;22.40;;
20734;SDS011;10528;52.124;5.196;2022-12-05T03:32:38;38.85;;;23.50;;
20734;SDS011;10528;52.124;5.196;2022-12-05T03:35:14;37.70;;;22.30;;
20734;SDS011;10528;52.124;5.196;2022-12-05T03:40:43;37.33;;;21.58;;
20734;SDS011;10528;52.124;5.196;2022-12-05T03:46:39;36.53;;;21.10;;
20734;SDS011;10528;52.124;5.196;2022-12-05T03:49:30;32.33;;;19.65;;
20734;SDS011;10528;52.124;5.196;2022-12-05T03:54:41;32.35;;;20.25;;
20734;SDS011;10528;52.124;5.196;2022-12-05T03:57:20;36.28;;;20.83;;
20734;SDS011;10528;52.124;5.196;2022-12-05T03:59:59;37.22;;;21.45;;
20734;SDS011;10528;52.124;5.196;2022-12-05T04:02:36;33.20;;;19.98;;
20734;SDS011;10528;52.124;5.196;2022-12-05T04:05:16;36.25;;;20.98;;
20734;SDS011;10528;52.124;5.196;2022-12-05T04:07:58;35.80;;;21.27;;
20734;SDS011;10528;52.124;5.196;2022-12-05T04:10:32;36.35;;;20.95;;
20734;SDS011;10528;52.124;5.196;2022-12-05T04:13:15;35.83;;;20.85;;
20734;SDS011;10528;52.124;5.196;2022-12-05T04:15:54;35.30;;;20.52;;
20734;SDS011;10528;52.124;5.196;2022-12-05T04:21:52;32.15;;;19.20;;
20734;SDS011;10528;52.124;5.196;2022-12-05T04:24:26;33.33;;;18.75;;
20734;SDS011;10528;52.124;5.196;2022-12-05T04:27:28;36.40;;;20.08;;
20734;SDS011;10528;52.124;5.196;2022-12-05T04:30:21;35.47;;;20.10;;
20734;SDS011;10528;52.124;5.196;2022-12-05T04:38:24;33.63;;;19.60;;
20734;SDS011;10528;52.124;5.196;2022-12-05T04:41:02;32.67;;;19.67;;
20734;SDS011;10528;52.124;5.196;2022-12-05T04:43:37;28.20;;;18.38;;
20734;SDS011;10528;52.124;5.196;2022-12-05T04:46:08;32.13;;;19.25;;
20734;SDS011;10528;52.124;5.196;2022-12-05T04:48:38;35.95;;;20.77;;
20734;SDS011;10528;52.124;5.196;2022-12-05T04:51:11;33.53;;;20.15;;
20734;SDS011;10528;52.124;5.196;2022-12-05T04:53:45;34.45;;;19.95;;
20734;SDS011;10528;52.124;5.196;2022-12-05T04:56:22;34.78;;;21.00;;
20734;SDS011;10528;52.124;5.196;2022-12-05T04:58:54;38.08;;;21.35;;
20734;SDS011;10528;52.124;5.196;2022-12-05T05:01:27;31.00;;;19.33;;
20734;SDS011;10528;52.124;5.196;2022-12-05T05:04:17;33.90;;;19.85;;
20734;SDS011;10528;52.124;5.196;2022-12-05T05:07:11;32.90;;;20.58;;
20734;SDS011;10528;52.124;5.196;2022-12-05T05:09:39;34.35;;;20.85;;
20734;SDS011;10528;52.124;5.196;2022-12-05T05:12:07;33.65;;;19.60;;
20734;SDS011;10528;52.124;5.196;2022-12-05T05:14:38;35.33;;;20.02;;
20734;SDS011;10528;52.124;5.196;2022-12-05T05:17:05;33.80;;;20.67;;
20734;SDS011;10528;52.124;5.196;2022-12-05T05:19:32;38.28;;;22.83;;
20734;SDS011;10528;52.124;5.196;2022-12-05T05:21:58;33.75;;;21.25;;
20734;SDS011;10528;52.124;5.196;2022-12-05T05:24:25;37.03;;;22.92;;
20734;SDS011;10528;52.124;5.196;2022-12-05T05:26:52;34.70;;;21.17;;
20734;SDS011;10528;52.124;5.196;2022-12-05T05:29:22;36.53;;;21.17;;
20734;SDS011;10528;52.124;5.196;2022-12-05T05:31:50;33.22;;;20.23;;
20734;SDS011;10528;52.124;5.196;2022-12-05T05:34:16;39.72;;;22.65;;
20734;SDS011;10528;52.124;5.196;2022-12-05T05:36:43;37.08;;;22.45;;
20734;SDS011;10528;52.124;5.196;2022-12-05T05:39:11;39.67;;;22.85;;
20734;SDS011;10528;52.124;5.196;2022-12-05T05:41:40;39.28;;;23.15;;
20734;SDS011;10528;52.124;5.196;2022-12-05T05:44:08;38.13;;;22.77;;
20734;SDS011;10528;52.124;5.196;2022-12-05T05:46:35;36.10;;;21.52;;
20734;SDS011;10528;52.124;5.196;2022-12-05T05:49:03;36.20;;;21.58;;
20734;SDS011;10528;52.124;5.196;2022-12-05T05:51:30;37.33;;;21.10;;
20734;SDS011;10528;52.124;5.196;2022-12-05T05:53:57;38.60;;;21.70;;
20734;SDS011;10528;52.124;5.196;2022-12-05T05:56:25;36.20;;;21.42;;
20734;SDS011;10528;52.124;5.196;2022-12-05T05:58:54;36.42;;;20.67;;
20734;SDS011;10528;52.124;5.196;2022-12-05T06:01:30;39.08;;;21.83;;
20734;SDS011;10528;52.124;5.196;2022-12-05T06:03:57;37.83;;;21.67;;
20734;SDS011;10528;52.124;5.196;2022-12-05T06:06:25;32.40;;;20.58;;
20734;SDS011;10528;52.124;5.196;2022-12-05T06:08:52;36.42;;;20.05;;
20734;SDS011;10528;52.124;5.196;2022-12-05T06:11:21;37.83;;;21.38;;
20734;SDS011;10528;52.124;5.196;2022-12-05T06:13:55;38.70;;;22.38;;
20734;SDS011;10528;52.124;5.196;2022-12-05T06:16:26;34.60;;;20.50;;
20734;SDS011;10528;52.124;5.196;2022-12-05T06:18:55;35.72;;;20.15;;
20734;SDS011;10528;52.124;5.196;2022-12-05T06:21:23;34.85;;;20.15;;
20734;SDS011;10528;52.124;5.196;2022-12-05T06:23:50;37.97;;;20.73;;
20734;SDS011;10528;52.124;5.196;2022-12-05T06:26:18;38.45;;;21.17;;
20734;SDS011;10528;52.124;5.196;2022-12-05T06:28:47;38.47;;;22.13;;
20734;SDS011;10528;52.124;5.196;2022-12-05T06:31:16;39.15;;;21.33;;
20734;SDS011;10528;52.124;5.196;2022-12-05T06:33:48;36.60;;;20.40;;
20734;SDS011;10528;52.124;5.196;2022-12-05T06:36:16;41.00;;;22.17;;
20734;SDS011;10528;52.124;5.196;2022-12-05T06:38:46;35.83;;;20.52;;
20734;SDS011;10528;52.124;5.196;2022-12-05T06:41:14;36.97;;;21.27;;
20734;SDS011;10528;52.124;5.196;2022-12-05T06:43:44;40.45;;;21.65;;
20734;SDS011;10528;52.124;5.196;2022-12-05T06:46:12;37.78;;;19.98;;
20734;SDS011;10528;52.124;5.196;2022-12-05T06:48:41;37.47;;;21.38;;
20734;SDS011;10528;52.124;5.196;2022-12-05T06:51:08;33.78;;;19.15;;
20734;SDS011;10528;52.124;5.196;2022-12-05T06:53:38;35.25;;;20.52;;
20734;SDS011;10528;52.124;5.196;2022-12-05T06:56:06;35.75;;;20.25;;
20734;SDS011;10528;52.124;5.196;2022-12-05T06:58:36;37.50;;;21.13;;
20734;SDS011;10528;52.124;5.196;2022-12-05T07:01:03;35.53;;;20.42;;
20734;SDS011;10528;52.124;5.196;2022-12-05T07:03:49;35.15;;;19.73;;
20734;SDS011;10528;52.124;5.196;2022-12-05T07:06:16;34.97;;;20.17;;
20734;SDS011;10528;52.124;5.196;2022-12-05T07:08:43;34.78;;;20.30;;
20734;SDS011;10528;52.124;5.196;2022-12-05T07:11:10;34.30;;;20.65;;
20734;SDS011;10528;52.124;5.196;2022-12-05T07:13:37;32.67;;;18.98;;
20734;SDS011;10528;52.124;5.196;2022-12-05T07:16:04;32.38;;;18.10;;
20734;SDS011;10528;52.124;5.196;2022-12-05T07:18:33;34.13;;;18.90;;
20734;SDS011;10528;52.124;5.196;2022-12-05T07:21:05;35.72;;;18.75;;
20734;SDS011;10528;52.124;5.196;2022-12-05T07:23:39;34.50;;;19.40;;
20734;SDS011;10528;52.124;5.196;2022-12-05T07:26:07;32.53;;;18.33;;
20734;SDS011;10528;52.124;5.196;2022-12-05T07:28:38;27.08;;;16.42;;
20734;SDS011;10528;52.124;5.196;2022-12-05T07:31:06;34.53;;;19.27;;
20734;SDS011;10528;52.124;5.196;2022-12-05T07:33:36;30.60;;;16.95;;
20734;SDS011;10528;52.124;5.196;2022-12-05T07:36:05;27.20;;;16.35;;
20734;SDS011;10528;52.124;5.196;2022-12-05T07:38:45;25.63;;;16.52;;
20734;SDS011;10528;52.124;5.196;2022-12-05T07:41:18;27.23;;;16.65;;
20734;SDS011;10528;52.124;5.196;2022-12-05T07:43:49;25.58;;;16.23;;
20734;SDS011;10528;52.124;5.196;2022-12-05T07:46:18;24.15;;;15.43;;
20734;SDS011;10528;52.124;5.196;2022-12-05T07:48:46;27.05;;;15.35;;
20734;SDS011;10528;52.124;5.196;2022-12-05T07:51:14;25.35;;;16.02;;
20734;SDS011;10528;52.124;5.196;2022-12-05T07:53:41;26.52;;;16.15;;
20734;SDS011;10528;52.124;5.196;2022-12-05T07:56:10;22.50;;;14.68;;
20734;SDS011;10528;52.124;5.196;2022-12-05T07:58:42;21.75;;;14.93;;
20734;SDS011;10528;52.124;5.196;2022-12-05T08:01:12;23.70;;;14.43;;
20734;SDS011;10528;52.124;5.196;2022-12-05T08:03:51;24.20;;;14.90;;
20734;SDS011;10528;52.124;5.196;2022-12-05T08:06:24;25.05;;;15.18;;
20734;SDS011;10528;52.124;5.196;2022-12-05T08:08:54;24.63;;;15.93;;
20734;SDS011;10528;52.124;5.196;2022-12-05T08:11:26;23.40;;;14.55;;
20734;SDS011;10528;52.124;5.196;2022-12-05T08:13:56;23.23;;;14.48;;
20734;SDS011;10528;52.124;5.196;2022-12-05T08:16:25;21.52;;;14.98;;
20734;SDS011;10528;52.124;5.196;2022-12-05T08:18:54;21.33;;;14.55;;
20734;SDS011;10528;52.124;5.196;2022-12-05T08:21:25;22.65;;;14.38;;
20734;SDS011;10528;52.124;5.196;2022-12-05T08:23:52;21.35;;;14.10;;
20734;SDS011;10528;52.124;5.196;2022-12-05T08:26:21;22.15;;;13.98;;
20734;SDS011;10528;52.124;5.196;2022-12-05T08:28:51;23.25;;;14.85;;
20734;SDS011;10528;52.124;5.196;2022-12-05T08:31:22;22.58;;;15.15;;
20734;SDS011;10528;52.124;5.196;2022-12-05T08:33:52;21.95;;;14.45;;
20734;SDS011;10528;52.124;5.196;2022-12-05T08:36:24;21.05;;;13.82;;
20734;SDS011;10528;52.124;5.196;2022-12-05T08:38:57;20.17;;;13.93;;
20734;SDS011;10528;52.124;5.196;2022-12-05T08:41:30;22.35;;;14.15;;
20734;SDS011;10528;52.124;5.196;2022-12-05T08:43:59;19.85;;;13.82;;
20734;SDS011;10528;52.124;5.196;2022-12-05T08:46:31;18.98;;;13.30;;
20734;SDS011;10528;52.124;5.196;2022-12-05T08:49:02;20.02;;;13.20;;
20734;SDS011;10528;52.124;5.196;2022-12-05T08:51:30;18.55;;;13.07;;
20734;SDS011;10528;52.124;5.196;2022-12-05T08:53:57;18.23;;;12.38;;
20734;SDS011;10528;52.124;5.196;2022-12-05T08:56:26;19.13;;;13.50;;
20734;SDS011;10528;52.124;5.196;2022-12-05T08:58:53;17.88;;;12.60;;
20734;SDS011;10528;52.124;5.196;2022-12-05T09:01:29;18.65;;;12.18;;
20734;SDS011;10528;52.124;5.196;2022-12-05T09:03:58;18.52;;;11.90;;
20734;SDS011;10528;52.124;5.196;2022-12-05T09:06:26;16.95;;;12.30;;
20734;SDS011;10528;52.124;5.196;2022-12-05T09:08:55;16.30;;;10.75;;
20734;SDS011;10528;52.124;5.196;2022-12-05T09:11:26;17.08;;;11.77;;
20734;SDS011;10528;52.124;5.196;2022-12-05T09:13:57;12.75;;;10.07;;
20734;SDS011;10528;52.124;5.196;2022-12-05T09:16:27;15.27;;;10.15;;
20734;SDS011;10528;52.124;5.196;2022-12-05T09:19:04;14.27;;;9.98;;
20734;SDS011;10528;52.124;5.196;2022-12-05T09:21:42;14.68;;;10.32;;
20734;SDS011;10528;52.124;5.196;2022-12-05T09:24:10;13.55;;;9.48;;
20734;SDS011;10528;52.124;5.196;2022-12-05T09:26:39;13.35;;;9.35;;
20734;SDS011;10528;52.124;5.196;2022-12-05T09:29:07;14.05;;;9.73;;
20734;SDS011;10528;52.124;5.196;2022-12-05T09:31:42;12.10;;;8.63;;
20734;SDS011;10528;52.124;5.196;2022-12-05T09:34:10;12.00;;;9.20;;
20734;SDS011;10528;52.124;5.196;2022-12-05T09:36:41;11.02;;;9.07;;
20734;SDS011;10528;52.124;5.196;2022-12-05T09:39:09;11.73;;;8.18;;
20734;SDS011;10528;52.124;5.196;2022-12-05T09:58:42;11.43;;;8.63;;
20734;SDS011;10528;52.124;5.196;2022-12-05T10:01:35;11.18;;;8.25;;
20734;SDS011;10528;52.124;5.196;2022-12-05T10:04:52;10.15;;;8.20;;
20734;SDS011;10528;52.124;5.196;2022-12-05T10:07:33;10.27;;;8.15;;
20734;SDS011;10528;52.124;5.196;2022-12-05T10:10:20;9.73;;;7.47;;
20734;SDS011;10528;52.124;5.196;2022-12-05T10:16:13;9.00;;;6.82;;
20734;SDS011;10528;52.124;5.196;2022-12-05T10:18:53;8.73;;;7.10;;
20734;SDS011;10528;52.124;5.196;2022-12-05T10:21:46;8.32;;;6.43;;
20734;SDS011;10528;52.124;5.196;2022-12-05T10:24:35;7.10;;;5.72;;
20734;SDS011;10528;52.124;5.196;2022-12-05T10:27:35;8.52;;;6.05;;
20734;SDS011;10528;52.124;5.196;2022-12-05T10:32:52;6.75;;;5.15;;
20734;SDS011;10528;52.124;5.196;2022-12-05T10:38:06;7.43;;;5.20;;
20734;SDS011;10528;52.124;5.196;2022-12-05T10:40:57;5.82;;;4.70;;
20734;SDS011;10528;52.124;5.196;2022-12-05T10:43:29;6.28;;;4.57;;
20734;SDS011;10528;52.124;5.196;2022-12-05T10:45:58;6.78;;;4.93;;
20734;SDS011;10528;52.124;5.196;2022-12-05T10:48:27;5.68;;;4.47;;
20734;SDS011;10528;52.124;5.196;2022-12-05T10:50:57;5.88;;;4.43;;
20734;SDS011;10528;52.124;5.196;2022-12-05T10:53:30;8.40;;;4.70;;
20734;SDS011;10528;52.124;5.196;2022-12-05T10:56:00;6.75;;;4.22;;
20734;SDS011;10528;52.124;5.196;2022-12-05T10:58:52;7.05;;;4.75;;
20734;SDS011;10528;52.124;5.196;2022-12-05T11:01:22;6.93;;;4.78;;
20734;SDS011;10528;52.124;5.196;2022-12-05T11:03:55;5.95;;;3.85;;
20734;SDS011;10528;52.124;5.196;2022-12-05T11:06:38;6.55;;;4.10;;
20734;SDS011;10528;52.124;5.196;2022-12-05T11:09:22;6.50;;;4.20;;
20734;SDS011;10528;52.124;5.196;2022-12-05T11:12:37;5.63;;;4.53;;
20734;SDS011;10528;52.124;5.196;2022-12-05T11:14:52;6.13;;;4.25;;
20734;SDS011;10528;52.124;5.196;2022-12-05T11:18:16;6.00;;;4.55;;
20734;SDS011;10528;52.124;5.196;2022-12-05T11:21:07;5.63;;;4.43;;
20734;SDS011;10528;52.124;5.196;2022-12-05T11:23:39;5.45;;;4.32;;
20734;SDS011;10528;52.124;5.196;2022-12-05T11:26:15;5.60;;;4.18;;
20734;SDS011;10528;52.124;5.196;2022-12-05T11:29:01;6.57;;;4.00;;
20734;SDS011;10528;52.124;5.196;2022-12-05T11:31:59;6.68;;;4.57;;
20734;SDS011;10528;52.124;5.196;2022-12-05T11:34:39;6.13;;;4.63;;
20734;SDS011;10528;52.124;5.196;2022-12-05T11:37:13;6.78;;;4.72;;
20734;SDS011;10528;52.124;5.196;2022-12-05T11:40:00;5.68;;;4.28;;
20734;SDS011;10528;52.124;5.196;2022-12-05T11:48:24;6.53;;;4.32;;
20734;SDS011;10528;52.124;5.196;2022-12-05T11:54:39;6.95;;;5.38;;
20734;SDS011;10528;52.124;5.196;2022-12-05T12:07:02;6.95;;;5.07;;
20734;SDS011;10528;52.124;5.196;2022-12-05T12:10:01;9.82;;;6.25;;
20734;SDS011;10528;52.124;5.196;2022-12-05T12:22:34;7.28;;;4.85;;
20734;SDS011;10528;52.124;5.196;2022-12-05T12:25:30;8.35;;;4.72;;
20734;SDS011;10528;52.124;5.196;2022-12-05T12:37:19;9.57;;;5.18;;
20734;SDS011;10528;52.124;5.196;2022-12-05T12:42:54;8.73;;;5.50;;
20734;SDS011;10528;52.124;5.196;2022-12-05T12:52:00;11.35;;;5.10;;
20734;SDS011;10528;52.124;5.196;2022-12-05T13:04:14;6.97;;;4.60;;
20734;SDS011;10528;52.124;5.196;2022-12-05T13:06:48;8.38;;;4.60;;
20734;SDS011;10528;52.124;5.196;2022-12-05T13:09:26;6.97;;;4.47;;
20734;SDS011;10528;52.124;5.196;2022-12-05T13:12:07;7.20;;;4.30;;
20734;SDS011;10528;52.124;5.196;2022-12-05T13:14:43;7.88;;;4.65;;
20734;SDS011;10528;52.124;5.196;2022-12-05T13:17:25;9.02;;;5.13;;
20734;SDS011;10528;52.124;5.196;2022-12-05T13:19:57;6.47;;;3.85;;
20734;SDS011;10528;52.124;5.196;2022-12-05T13:22:26;8.65;;;4.20;;
20734;SDS011;10528;52.124;5.196;2022-12-05T13:24:54;6.97;;;4.18;;
20734;SDS011;10528;52.124;5.196;2022-12-05T13:27:23;7.70;;;4.43;;
20734;SDS011;10528;52.124;5.196;2022-12-05T13:29:54;6.13;;;3.75;;
20734;SDS011;10528;52.124;5.196;2022-12-05T13:32:35;7.55;;;4.35;;
20734;SDS011;10528;52.124;5.196;2022-12-05T13:35:19;5.88;;;3.95;;
20734;SDS011;10528;52.124;5.196;2022-12-05T13:38:18;5.63;;;3.88;;
20734;SDS011;10528;52.124;5.196;2022-12-05T13:41:19;6.88;;;4.22;;
20734;SDS011;10528;52.124;5.196;2022-12-05T13:44:04;7.68;;;4.03;;
20734;SDS011;10528;52.124;5.196;2022-12-05T13:46:38;6.40;;;4.50;;
20734;SDS011;10528;52.124;5.196;2022-12-05T13:49:25;7.55;;;4.32;;
20734;SDS011;10528;52.124;5.196;2022-12-05T13:52:12;7.20;;;4.07;;
20734;SDS011;10528;52.124;5.196;2022-12-05T13:54:56;6.93;;;4.40;;
20734;SDS011;10528;52.124;5.196;2022-12-05T13:57:48;7.93;;;4.60;;
20734;SDS011;10528;52.124;5.196;2022-12-05T14:00:20;6.20;;;4.15;;
20734;SDS011;10528;52.124;5.196;2022-12-05T14:02:54;6.05;;;3.88;;
20734;SDS011;10528;52.124;5.196;2022-12-05T14:15:50;5.22;;;3.38;;
20734;SDS011;10528;52.124;5.196;2022-12-05T14:18:21;5.95;;;3.92;;
20734;SDS011;10528;52.124;5.196;2022-12-05T14:24:14;6.40;;;3.90;;
20734;SDS011;10528;52.124;5.196;2022-12-05T14:27:10;7.15;;;4.13;;
20734;SDS011;10528;52.124;5.196;2022-12-05T14:29:59;7.88;;;4.28;;
20734;SDS011;10528;52.124;5.196;2022-12-05T14:32:31;5.10;;;3.28;;
20734;SDS011;10528;52.124;5.196;2022-12-05T14:35:10;6.65;;;3.92;;
20734;SDS011;10528;52.124;5.196;2022-12-05T14:38:04;5.72;;;3.80;;
20734;SDS011;10528;52.124;5.196;2022-12-05T14:46:00;5.13;;;3.58;;
20734;SDS011;10528;52.124;5.196;2022-12-05T14:48:32;5.53;;;3.45;;
20734;SDS011;10528;52.124;5.196;2022-12-05T14:54:07;6.68;;;3.78;;
20734;SDS011;10528;52.124;5.196;2022-12-05T14:56:42;4.70;;;3.45;;
20734;SDS011;10528;52.124;5.196;2022-12-05T14:59:24;6.65;;;3.70;;
20734;SDS011;10528;52.124;5.196;2022-12-05T15:02:16;5.57;;;3.40;;
20734;SDS011;10528;52.124;5.196;2022-12-05T15:04:57;5.13;;;3.70;;
20734;SDS011;10528;52.124;5.196;2022-12-05T15:07:34;6.40;;;3.67;;
20734;SDS011;10528;52.124;5.196;2022-12-05T15:13:04;5.07;;;3.50;;
20734;SDS011;10528;52.124;5.196;2022-12-05T15:18:11;5.25;;;3.45;;
20734;SDS011;10528;52.124;5.196;2022-12-05T15:20:53;6.93;;;3.55;;
20734;SDS011;10528;52.124;5.196;2022-12-05T15:24:04;6.05;;;3.78;;
20734;SDS011;10528;52.124;5.196;2022-12-05T15:26:43;6.90;;;4.28;;
20734;SDS011;10528;52.124;5.196;2022-12-05T15:29:25;6.00;;;3.90;;
20734;SDS011;10528;52.124;5.196;2022-12-05T15:31:59;6.28;;;3.67;;
20734;SDS011;10528;52.124;5.196;2022-12-05T15:40:13;7.43;;;4.60;;
20734;SDS011;10528;52.124;5.196;2022-12-05T15:42:48;7.35;;;3.80;;
20734;SDS011;10528;52.124;5.196;2022-12-05T15:45:19;6.95;;;4.57;;
20734;SDS011;10528;52.124;5.196;2022-12-05T15:50:42;6.13;;;4.35;;
20734;SDS011;10528;52.124;5.196;2022-12-05T15:53:16;5.93;;;4.10;;
20734;SDS011;10528;52.124;5.196;2022-12-05T15:56:03;8.65;;;4.85;;
20734;SDS011;10528;52.124;5.196;2022-12-05T15:58:55;7.15;;;4.53;;
20734;SDS011;10528;52.124;5.196;2022-12-05T16:01:43;6.75;;;4.30;;
20734;SDS011;10528;52.124;5.196;2022-12-05T16:04:29;7.20;;;4.78;;
20734;SDS011;10528;52.124;5.196;2022-12-05T16:07:07;7.57;;;4.75;;
20734;SDS011;10528;52.124;5.196;2022-12-05T16:09:38;7.47;;;5.07;;
20734;SDS011;10528;52.124;5.196;2022-12-05T16:12:22;9.05;;;4.68;;
20734;SDS011;10528;52.124;5.196;2022-12-05T16:14:56;8.35;;;5.22;;
20734;SDS011;10528;52.124;5.196;2022-12-05T16:17:47;10.57;;;4.80;;
20734;SDS011;10528;52.124;5.196;2022-12-05T16:22:53;8.35;;;5.03;;
20734;SDS011;10528;52.124;5.196;2022-12-05T16:25:24;8.20;;;5.13;;
20734;SDS011;10528;52.124;5.196;2022-12-05T16:28:16;7.80;;;4.95;;
20734;SDS011;10528;52.124;5.196;2022-12-05T16:30:59;10.55;;;5.32;;
20734;SDS011;10528;52.124;5.196;2022-12-05T16:33:29;7.53;;;5.07;;
20734;SDS011;10528;52.124;5.196;2022-12-05T16:36:06;8.68;;;5.00;;
20734;SDS011;10528;52.124;5.196;2022-12-05T16:38:37;11.30;;;5.72;;
20734;SDS011;10528;52.124;5.196;2022-12-05T16:41:15;10.00;;;5.95;;
20734;SDS011;10528;52.124;5.196;2022-12-05T16:43:43;11.90;;;6.28;;
20734;SDS011;10528;52.124;5.196;2022-12-05T16:48:40;9.70;;;6.65;;
20734;SDS011;10528;52.124;5.196;2022-12-05T16:51:19;11.88;;;7.47;;
20734;SDS011;10528;52.124;5.196;2022-12-05T16:53:54;11.95;;;7.40;;
20734;SDS011;10528;52.124;5.196;2022-12-05T16:58:56;12.40;;;6.80;;
20734;SDS011;10528;52.124;5.196;2022-12-05T17:01:31;10.00;;;6.18;;
20734;SDS011;10528;52.124;5.196;2022-12-05T17:04:04;8.98;;;6.03;;
20734;SDS011;10528;52.124;5.196;2022-12-05T17:06:39;11.15;;;6.75;;
20734;SDS011;10528;52.124;5.196;2022-12-05T17:09:06;9.93;;;6.20;;
20734;SDS011;10528;52.124;5.196;2022-12-05T17:11:33;12.02;;;6.30;;
20734;SDS011;10528;52.124;5.196;2022-12-05T17:14:03;11.88;;;5.68;;
20734;SDS011;10528;52.124;5.196;2022-12-05T17:16:32;7.97;;;5.60;;
20734;SDS011;10528;52.124;5.196;2022-12-05T17:18:59;7.75;;;4.82;;
20734;SDS011;10528;52.124;5.196;2022-12-05T17:21:28;6.40;;;4.55;;
20734;SDS011;10528;52.124;5.196;2022-12-05T17:23:58;7.07;;;4.88;;
20734;SDS011;10528;52.124;5.196;2022-12-05T17:26:26;6.57;;;4.70;;
20734;SDS011;10528;52.124;5.196;2022-12-05T17:28:53;9.98;;;5.63;;
20734;SDS011;10528;52.124;5.196;2022-12-05T17:31:20;8.57;;;5.90;;
20734;SDS011;10528;52.124;5.196;2022-12-05T17:33:50;8.07;;;5.15;;
20734;SDS011;10528;52.124;5.196;2022-12-05T17:36:19;7.97;;;5.40;;
20734;SDS011;10528;52.124;5.196;2022-12-05T17:38:46;10.05;;;5.22;;
20734;SDS011;10528;52.124;5.196;2022-12-05T17:41:23;9.60;;;5.63;;
20734;SDS011;10528;52.124;5.196;2022-12-05T17:43:53;9.65;;;5.50;;
20734;SDS011;10528;52.124;5.196;2022-12-05T17:46:21;9.35;;;4.43;;
20734;SDS011;10528;52.124;5.196;2022-12-05T17:48:49;6.93;;;4.20;;
20734;SDS011;10528;52.124;5.196;2022-12-05T17:51:17;6.75;;;4.40;;
20734;SDS011;10528;52.124;5.196;2022-12-05T17:53:46;6.43;;;4.60;;
20734;SDS011;10528;52.124;5.196;2022-12-05T17:56:13;7.53;;;4.50;;
20734;SDS011;10528;52.124;5.196;2022-12-05T17:58:41;8.25;;;4.03;;
20734;SDS011;10528;52.124;5.196;2022-12-05T18:01:15;5.32;;;3.70;;
20734;SDS011;10528;52.124;5.196;2022-12-05T18:03:45;7.60;;;4.45;;
20734;SDS011;10528;52.124;5.196;2022-12-05T18:06:13;6.63;;;3.65;;
20734;SDS011;10528;52.124;5.196;2022-12-05T18:08:41;6.18;;;3.83;;